sensor_id;sensor_type;location;lat;lon;timestamp;temperature;humidity
5960;DHT22;3006;50.956;7.002;2023-05-14T00:02:04;14.70;99.90
5960;DHT22;3006;50.956;7.002;2023-05-14T00:04:32;14.70;99.90
5960;DHT22;3006;50.956;7.002;2023-05-14T00:07:01;14.70;99.90
5960;DHT22;3006;50.956;7.002;2023-05-14T00:09:29;14.60;99.90
5960;DHT22;3006;50.956;7.002;2023-05-14T00:11:57;14.70;99.90
5960;DHT22;3006;50.956;7.002;2023-05-14T00:14:25;14.70;99.90
5960;DHT22;3006;50.956;7.002;2023-05-14T00:16:53;14.60;99.90
5960;DHT22;3006;50.956;7.002;2023-05-14T00:19:22;14.60;99.90
5960;DHT22;3006;50.956;7.002;2023-05-14T00:21:50;14.60;99.90
5960;DHT22;3006;50.956;7.002;2023-05-14T00:24:18;14.60;99.90
5960;DHT22;3006;50.956;7.002;2023-05-14T00:26:46;14.60;99.90
5960;DHT22;3006;50.956;7.002;2023-05-14T00:29:14;14.50;99.90
5960;DHT22;3006;50.956;7.002;2023-05-14T00:31:42;14.40;99.90
5960;DHT22;3006;50.956;7.002;2023-05-14T00:34:11;14.30;99.90
5960;DHT22;3006;50.956;7.002;2023-05-14T00:36:40;14.30;99.90
5960;DHT22;3006;50.956;7.002;2023-05-14T00:39:08;14.30;99.90
5960;DHT22;3006;50.956;7.002;2023-05-14T00:41:36;14.10;99.90
5960;DHT22;3006;50.956;7.002;2023-05-14T00:44:04;14.20;99.90
5960;DHT22;3006;50.956;7.002;2023-05-14T00:46:32;14.20;99.90
5960;DHT22;3006;50.956;7.002;2023-05-14T00:49:00;14.20;99.90
5960;DHT22;3006;50.956;7.002;2023-05-14T00:51:28;14.20;99.90
5960;DHT22;3006;50.956;7.002;2023-05-14T00:53:58;14.20;99.90
5960;DHT22;3006;50.956;7.002;2023-05-14T00:56:27;14.20;99.90
5960;DHT22;3006;50.956;7.002;2023-05-14T00:58:55;14.10;99.90
5960;DHT22;3006;50.956;7.002;2023-05-14T01:01:23;14.10;99.90
5960;DHT22;3006;50.956;7.002;2023-05-14T01:03:54;14.10;99.90
5960;DHT22;3006;50.956;7.002;2023-05-14T01:06:27;14.10;99.90
5960;DHT22;3006;50.956;7.002;2023-05-14T01:09:04;14.10;99.90
5960;DHT22;3006;50.956;7.002;2023-05-14T01:11:41;14.20;99.90
5960;DHT22;3006;50.956;7.002;2023-05-14T01:14:16;14.20;99.90
5960;DHT22;3006;50.956;7.002;2023-05-14T01:16:47;14.10;99.90
5960;DHT22;3006;50.956;7.002;2023-05-14T01:19:28;14.10;99.90
5960;DHT22;3006;50.956;7.002;2023-05-14T01:21:58;14.10;99.90
5960;DHT22;3006;50.956;7.002;2023-05-14T01:24:26;14.10;99.90
5960;DHT22;3006;50.956;7.002;2023-05-14T01:26:57;14.00;99.90
5960;DHT22;3006;50.956;7.002;2023-05-14T01:29:28;14.00;99.90
5960;DHT22;3006;50.956;7.002;2023-05-14T01:31:59;14.00;99.90
5960;DHT22;3006;50.956;7.002;2023-05-14T01:34:29;13.90;99.90
5960;DHT22;3006;50.956;7.002;2023-05-14T01:36:59;13.80;99.90
5960;DHT22;3006;50.956;7.002;2023-05-14T01:39:28;13.80;99.90
5960;DHT22;3006;50.956;7.002;2023-05-14T01:41:58;13.70;99.90
5960;DHT22;3006;50.956;7.002;2023-05-14T01:44:27;13.70;99.90
5960;DHT22;3006;50.956;7.002;2023-05-14T01:46:55;13.70;99.90
5960;DHT22;3006;50.956;7.002;2023-05-14T01:49:23;13.70;99.90
5960;DHT22;3006;50.956;7.002;2023-05-14T01:51:51;13.70;99.90
5960;DHT22;3006;50.956;7.002;2023-05-14T01:54:21;13.60;99.90
5960;DHT22;3006;50.956;7.002;2023-05-14T01:56:50;13.60;99.90
5960;DHT22;3006;50.956;7.002;2023-05-14T01:59:18;13.60;99.90
5960;DHT22;3006;50.956;7.002;2023-05-14T02:01:46;13.50;99.90
5960;DHT22;3006;50.956;7.002;2023-05-14T02:04:14;13.50;99.90
5960;DHT22;3006;50.956;7.002;2023-05-14T02:06:42;13.50;99.90
5960;DHT22;3006;50.956;7.002;2023-05-14T02:09:10;13.40;99.90
5960;DHT22;3006;50.956;7.002;2023-05-14T02:11:40;13.40;99.90
5960;DHT22;3006;50.956;7.002;2023-05-14T02:14:08;13.40;99.90
5960;DHT22;3006;50.956;7.002;2023-05-14T02:16:36;13.50;99.90
5960;DHT22;3006;50.956;7.002;2023-05-14T02:19:04;13.40;99.90
5960;DHT22;3006;50.956;7.002;2023-05-14T02:21:32;13.30;99.90
5960;DHT22;3006;50.956;7.002;2023-05-14T02:24:00;13.20;99.90
5960;DHT22;3006;50.956;7.002;2023-05-14T02:26:28;13.20;99.90
5960;DHT22;3006;50.956;7.002;2023-05-14T02:28:58;13.30;99.90
5960;DHT22;3006;50.956;7.002;2023-05-14T02:31:26;13.30;99.90
5960;DHT22;3006;50.956;7.002;2023-05-14T02:33:54;13.30;99.90
5960;DHT22;3006;50.956;7.002;2023-05-14T02:36:22;13.20;99.90
5960;DHT22;3006;50.956;7.002;2023-05-14T02:38:50;13.10;99.90
5960;DHT22;3006;50.956;7.002;2023-05-14T02:41:18;13.00;99.90
5960;DHT22;3006;50.956;7.002;2023-05-14T02:43:47;13.00;99.90
5960;DHT22;3006;50.956;7.002;2023-05-14T02:46:16;12.90;99.90
5960;DHT22;3006;50.956;7.002;2023-05-14T02:48:44;12.80;99.90
5960;DHT22;3006;50.956;7.002;2023-05-14T02:51:12;12.80;99.90
5960;DHT22;3006;50.956;7.002;2023-05-14T02:53:40;12.80;99.90
5960;DHT22;3006;50.956;7.002;2023-05-14T02:56:08;12.80;99.90
5960;DHT22;3006;50.956;7.002;2023-05-14T02:58:36;12.60;99.90
5960;DHT22;3006;50.956;7.002;2023-05-14T03:01:05;12.60;99.90
5960;DHT22;3006;50.956;7.002;2023-05-14T03:03:35;12.50;99.90
5960;DHT22;3006;50.956;7.002;2023-05-14T03:06:04;12.50;99.90
5960;DHT22;3006;50.956;7.002;2023-05-14T03:08:32;12.50;99.90
5960;DHT22;3006;50.956;7.002;2023-05-14T03:11:01;12.60;99.90
5960;DHT22;3006;50.956;7.002;2023-05-14T03:13:29;12.50;99.90
5960;DHT22;3006;50.956;7.002;2023-05-14T03:15:57;12.40;99.90
5960;DHT22;3006;50.956;7.002;2023-05-14T03:18:25;12.40;99.90
5960;DHT22;3006;50.956;7.002;2023-05-14T03:20:55;12.50;99.90
5960;DHT22;3006;50.956;7.002;2023-05-14T03:23:23;12.50;99.90
5960;DHT22;3006;50.956;7.002;2023-05-14T03:25:51;12.50;99.90
5960;DHT22;3006;50.956;7.002;2023-05-14T03:28:19;12.50;99.90
5960;DHT22;3006;50.956;7.002;2023-05-14T03:30:47;12.40;99.90
5960;DHT22;3006;50.956;7.002;2023-05-14T03:33:15;12.20;99.90
5960;DHT22;3006;50.956;7.002;2023-05-14T03:35:43;12.20;99.90
5960;DHT22;3006;50.956;7.002;2023-05-14T03:38:13;12.20;99.90
5960;DHT22;3006;50.956;7.002;2023-05-14T03:40:41;12.30;99.90
5960;DHT22;3006;50.956;7.002;2023-05-14T03:43:09;12.20;99.90
5960;DHT22;3006;50.956;7.002;2023-05-14T03:45:39;12.10;99.90
5960;DHT22;3006;50.956;7.002;2023-05-14T03:48:07;12.20;99.90
5960;DHT22;3006;50.956;7.002;2023-05-14T03:50:37;12.20;99.90
5960;DHT22;3006;50.956;7.002;2023-05-14T03:53:05;12.20;99.90
5960;DHT22;3006;50.956;7.002;2023-05-14T03:55:34;12.10;99.90
5960;DHT22;3006;50.956;7.002;2023-05-14T03:58:03;12.10;99.90
5960;DHT22;3006;50.956;7.002;2023-05-14T04:00:33;12.10;99.90
5960;DHT22;3006;50.956;7.002;2023-05-14T04:03:01;12.20;99.90
5960;DHT22;3006;50.956;7.002;2023-05-14T04:05:29;12.20;99.90
5960;DHT22;3006;50.956;7.002;2023-05-14T04:07:57;12.20;99.90
5960;DHT22;3006;50.956;7.002;2023-05-14T04:10:25;12.20;99.90
5960;DHT22;3006;50.956;7.002;2023-05-14T04:12:55;12.20;99.90
5960;DHT22;3006;50.956;7.002;2023-05-14T04:15:27;12.20;99.90
5960;DHT22;3006;50.956;7.002;2023-05-14T04:17:55;12.30;99.90
5960;DHT22;3006;50.956;7.002;2023-05-14T04:20:23;12.40;99.90
5960;DHT22;3006;50.956;7.002;2023-05-14T04:22:52;12.50;99.90
5960;DHT22;3006;50.956;7.002;2023-05-14T04:25:20;12.40;99.90
5960;DHT22;3006;50.956;7.002;2023-05-14T04:27:49;12.40;99.90
5960;DHT22;3006;50.956;7.002;2023-05-14T04:30:19;12.30;99.90
5960;DHT22;3006;50.956;7.002;2023-05-14T04:32:47;12.20;99.90
5960;DHT22;3006;50.956;7.002;2023-05-14T04:35:15;12.10;99.90
5960;DHT22;3006;50.956;7.002;2023-05-14T04:37:43;12.10;99.90
5960;DHT22;3006;50.956;7.002;2023-05-14T04:40:12;12.20;99.90
5960;DHT22;3006;50.956;7.002;2023-05-14T04:42:42;12.10;99.90
5960;DHT22;3006;50.956;7.002;2023-05-14T04:45:10;12.10;99.90
5960;DHT22;3006;50.956;7.002;2023-05-14T04:47:41;12.10;99.90
5960;DHT22;3006;50.956;7.002;2023-05-14T04:50:10;12.20;99.90
5960;DHT22;3006;50.956;7.002;2023-05-14T04:52:39;12.30;99.90
5960;DHT22;3006;50.956;7.002;2023-05-14T04:55:08;12.30;99.90
5960;DHT22;3006;50.956;7.002;2023-05-14T04:57:36;12.30;99.90
5960;DHT22;3006;50.956;7.002;2023-05-14T05:00:05;12.20;99.90
5960;DHT22;3006;50.956;7.002;2023-05-14T05:02:35;12.20;99.90
5960;DHT22;3006;50.956;7.002;2023-05-14T05:05:05;12.20;99.90
5960;DHT22;3006;50.956;7.002;2023-05-14T05:07:33;12.20;99.90
5960;DHT22;3006;50.956;7.002;2023-05-14T05:10:01;12.20;99.90
5960;DHT22;3006;50.956;7.002;2023-05-14T05:12:30;12.30;99.90
5960;DHT22;3006;50.956;7.002;2023-05-14T05:14:58;12.30;99.90
5960;DHT22;3006;50.956;7.002;2023-05-14T05:17:28;12.40;99.90
5960;DHT22;3006;50.956;7.002;2023-05-14T05:19:56;12.50;99.90
5960;DHT22;3006;50.956;7.002;2023-05-14T05:22:25;12.40;99.90
5960;DHT22;3006;50.956;7.002;2023-05-14T05:24:53;12.50;99.90
5960;DHT22;3006;50.956;7.002;2023-05-14T05:27:21;12.60;99.90
5960;DHT22;3006;50.956;7.002;2023-05-14T05:29:49;12.60;99.90
5960;DHT22;3006;50.956;7.002;2023-05-14T05:32:17;12.60;99.90
5960;DHT22;3006;50.956;7.002;2023-05-14T05:34:45;12.60;99.90
5960;DHT22;3006;50.956;7.002;2023-05-14T05:37:13;12.60;99.90
5960;DHT22;3006;50.956;7.002;2023-05-14T05:39:43;12.70;99.90
5960;DHT22;3006;50.956;7.002;2023-05-14T05:42:11;12.70;99.90
5960;DHT22;3006;50.956;7.002;2023-05-14T05:44:39;12.70;99.90
5960;DHT22;3006;50.956;7.002;2023-05-14T05:47:07;12.80;99.90
5960;DHT22;3006;50.956;7.002;2023-05-14T05:49:35;12.80;99.90
5960;DHT22;3006;50.956;7.002;2023-05-14T05:52:04;12.90;99.90
5960;DHT22;3006;50.956;7.002;2023-05-14T05:54:32;13.00;99.90
5960;DHT22;3006;50.956;7.002;2023-05-14T05:57:01;13.00;99.90
5960;DHT22;3006;50.956;7.002;2023-05-14T05:59:29;13.10;99.90
5960;DHT22;3006;50.956;7.002;2023-05-14T06:01:57;13.10;99.90
5960;DHT22;3006;50.956;7.002;2023-05-14T06:04:25;13.20;99.90
5960;DHT22;3006;50.956;7.002;2023-05-14T06:06:53;13.30;99.90
5960;DHT22;3006;50.956;7.002;2023-05-14T06:09:21;13.30;99.90
5960;DHT22;3006;50.956;7.002;2023-05-14T06:11:49;13.40;99.90
5960;DHT22;3006;50.956;7.002;2023-05-14T06:14:19;13.50;99.90
5960;DHT22;3006;50.956;7.002;2023-05-14T06:16:47;13.50;99.90
5960;DHT22;3006;50.956;7.002;2023-05-14T06:19:15;13.60;99.90
5960;DHT22;3006;50.956;7.002;2023-05-14T06:21:44;13.60;99.90
5960;DHT22;3006;50.956;7.002;2023-05-14T06:24:12;13.70;99.90
5960;DHT22;3006;50.956;7.002;2023-05-14T06:26:40;13.70;99.90
5960;DHT22;3006;50.956;7.002;2023-05-14T06:29:08;13.70;99.90
5960;DHT22;3006;50.956;7.002;2023-05-14T06:31:37;13.70;99.90
5960;DHT22;3006;50.956;7.002;2023-05-14T06:34:05;13.80;99.90
5960;DHT22;3006;50.956;7.002;2023-05-14T06:36:33;13.80;99.90
5960;DHT22;3006;50.956;7.002;2023-05-14T06:39:01;13.90;99.90
5960;DHT22;3006;50.956;7.002;2023-05-14T06:41:30;13.90;99.90
5960;DHT22;3006;50.956;7.002;2023-05-14T06:43:58;13.90;99.90
5960;DHT22;3006;50.956;7.002;2023-05-14T06:46:26;14.10;99.90
5960;DHT22;3006;50.956;7.002;2023-05-14T06:48:55;14.20;99.90
5960;DHT22;3006;50.956;7.002;2023-05-14T06:51:25;14.30;99.90
5960;DHT22;3006;50.956;7.002;2023-05-14T06:53:54;14.30;99.90
5960;DHT22;3006;50.956;7.002;2023-05-14T06:56:22;14.40;99.90
5960;DHT22;3006;50.956;7.002;2023-05-14T06:58:50;14.50;99.90
5960;DHT22;3006;50.956;7.002;2023-05-14T07:01:18;14.50;99.90
5960;DHT22;3006;50.956;7.002;2023-05-14T07:03:46;14.60;99.90
5960;DHT22;3006;50.956;7.002;2023-05-14T07:06:15;14.60;99.90
5960;DHT22;3006;50.956;7.002;2023-05-14T07:08:43;14.70;99.90
5960;DHT22;3006;50.956;7.002;2023-05-14T07:11:12;14.80;99.90
5960;DHT22;3006;50.956;7.002;2023-05-14T07:13:41;14.80;99.90
5960;DHT22;3006;50.956;7.002;2023-05-14T07:16:09;14.90;99.90
5960;DHT22;3006;50.956;7.002;2023-05-14T07:18:37;15.00;99.90
5960;DHT22;3006;50.956;7.002;2023-05-14T07:21:06;15.00;99.90
5960;DHT22;3006;50.956;7.002;2023-05-14T07:23:35;15.10;99.90
5960;DHT22;3006;50.956;7.002;2023-05-14T07:26:04;15.10;99.90
5960;DHT22;3006;50.956;7.002;2023-05-14T07:28:32;15.20;99.90
5960;DHT22;3006;50.956;7.002;2023-05-14T07:31:01;15.30;99.90
5960;DHT22;3006;50.956;7.002;2023-05-14T07:33:30;15.40;99.90
5960;DHT22;3006;50.956;7.002;2023-05-14T07:35:58;15.40;99.90
5960;DHT22;3006;50.956;7.002;2023-05-14T07:38:26;15.50;99.90
5960;DHT22;3006;50.956;7.002;2023-05-14T07:40:56;15.60;99.90
5960;DHT22;3006;50.956;7.002;2023-05-14T07:43:24;15.60;99.90
5960;DHT22;3006;50.956;7.002;2023-05-14T07:45:52;15.70;99.90
5960;DHT22;3006;50.956;7.002;2023-05-14T07:48:21;15.70;99.90
5960;DHT22;3006;50.956;7.002;2023-05-14T07:50:49;15.80;99.90
5960;DHT22;3006;50.956;7.002;2023-05-14T07:53:17;15.90;99.90
5960;DHT22;3006;50.956;7.002;2023-05-14T07:55:45;15.90;99.90
5960;DHT22;3006;50.956;7.002;2023-05-14T07:58:16;16.00;99.90
5960;DHT22;3006;50.956;7.002;2023-05-14T08:00:44;16.00;99.90
5960;DHT22;3006;50.956;7.002;2023-05-14T08:03:12;16.10;99.90
5960;DHT22;3006;50.956;7.002;2023-05-14T08:05:40;16.20;99.90
5960;DHT22;3006;50.956;7.002;2023-05-14T08:08:09;16.20;99.90
5960;DHT22;3006;50.956;7.002;2023-05-14T08:10:38;16.30;99.90
5960;DHT22;3006;50.956;7.002;2023-05-14T08:13:06;16.30;99.90
5960;DHT22;3006;50.956;7.002;2023-05-14T08:15:35;16.40;99.90
5960;DHT22;3006;50.956;7.002;2023-05-14T08:18:03;16.40;99.90
5960;DHT22;3006;50.956;7.002;2023-05-14T08:20:31;16.50;99.90
5960;DHT22;3006;50.956;7.002;2023-05-14T08:22:59;16.50;99.90
5960;DHT22;3006;50.956;7.002;2023-05-14T08:25:28;16.50;99.90
5960;DHT22;3006;50.956;7.002;2023-05-14T08:27:56;16.60;99.90
5960;DHT22;3006;50.956;7.002;2023-05-14T08:30:25;16.70;99.90
5960;DHT22;3006;50.956;7.002;2023-05-14T08:32:55;16.70;99.90
5960;DHT22;3006;50.956;7.002;2023-05-14T08:35:23;16.80;99.90
5960;DHT22;3006;50.956;7.002;2023-05-14T08:37:51;16.80;99.90
5960;DHT22;3006;50.956;7.002;2023-05-14T08:40:19;16.90;99.90
5960;DHT22;3006;50.956;7.002;2023-05-14T08:42:49;16.90;99.90
5960;DHT22;3006;50.956;7.002;2023-05-14T08:45:19;17.00;99.90
5960;DHT22;3006;50.956;7.002;2023-05-14T08:47:49;17.00;99.90
5960;DHT22;3006;50.956;7.002;2023-05-14T08:50:19;17.00;99.90
5960;DHT22;3006;50.956;7.002;2023-05-14T08:52:49;17.00;99.90
5960;DHT22;3006;50.956;7.002;2023-05-14T08:55:17;17.00;99.90
5960;DHT22;3006;50.956;7.002;2023-05-14T08:57:46;17.00;99.90
5960;DHT22;3006;50.956;7.002;2023-05-14T09:00:14;17.20;99.90
5960;DHT22;3006;50.956;7.002;2023-05-14T09:02:45;17.40;99.90
5960;DHT22;3006;50.956;7.002;2023-05-14T09:05:16;17.40;99.90
5960;DHT22;3006;50.956;7.002;2023-05-14T09:07:47;17.50;99.90
5960;DHT22;3006;50.956;7.002;2023-05-14T09:10:15;17.60;99.90
5960;DHT22;3006;50.956;7.002;2023-05-14T09:12:44;17.60;99.90
5960;DHT22;3006;50.956;7.002;2023-05-14T09:15:12;17.70;99.90
5960;DHT22;3006;50.956;7.002;2023-05-14T09:17:40;17.60;99.90
5960;DHT22;3006;50.956;7.002;2023-05-14T09:20:10;17.50;99.90
5960;DHT22;3006;50.956;7.002;2023-05-14T09:22:39;17.60;99.90
5960;DHT22;3006;50.956;7.002;2023-05-14T09:25:09;17.70;99.90
5960;DHT22;3006;50.956;7.002;2023-05-14T09:27:38;17.80;99.90
5960;DHT22;3006;50.956;7.002;2023-05-14T09:30:08;17.90;99.90
5960;DHT22;3006;50.956;7.002;2023-05-14T09:32:40;18.00;99.90
5960;DHT22;3006;50.956;7.002;2023-05-14T09:35:11;18.00;99.90
5960;DHT22;3006;50.956;7.002;2023-05-14T09:37:41;17.90;99.90
5960;DHT22;3006;50.956;7.002;2023-05-14T09:40:11;17.90;99.90
5960;DHT22;3006;50.956;7.002;2023-05-14T09:42:40;18.00;99.90
5960;DHT22;3006;50.956;7.002;2023-05-14T09:45:09;18.00;99.90
5960;DHT22;3006;50.956;7.002;2023-05-14T09:47:37;18.10;99.90
5960;DHT22;3006;50.956;7.002;2023-05-14T09:50:06;18.10;99.90
5960;DHT22;3006;50.956;7.002;2023-05-14T09:52:35;18.10;99.90
5960;DHT22;3006;50.956;7.002;2023-05-14T09:55:04;18.10;99.90
5960;DHT22;3006;50.956;7.002;2023-05-14T09:57:34;18.20;99.90
5960;DHT22;3006;50.956;7.002;2023-05-14T10:00:03;18.20;99.90
5960;DHT22;3006;50.956;7.002;2023-05-14T10:02:35;18.30;99.90
5960;DHT22;3006;50.956;7.002;2023-05-14T10:05:05;18.40;99.90
5960;DHT22;3006;50.956;7.002;2023-05-14T10:07:37;18.50;99.90
5960;DHT22;3006;50.956;7.002;2023-05-14T10:10:09;18.60;99.90
5960;DHT22;3006;50.956;7.002;2023-05-14T10:12:39;18.60;99.90
5960;DHT22;3006;50.956;7.002;2023-05-14T10:15:15;18.60;99.90
5960;DHT22;3006;50.956;7.002;2023-05-14T10:17:48;18.70;99.90
5960;DHT22;3006;50.956;7.002;2023-05-14T10:20:19;18.70;99.90
5960;DHT22;3006;50.956;7.002;2023-05-14T10:22:50;18.70;99.90
5960;DHT22;3006;50.956;7.002;2023-05-14T10:25:18;18.80;99.90
5960;DHT22;3006;50.956;7.002;2023-05-14T10:27:48;18.90;99.90
5960;DHT22;3006;50.956;7.002;2023-05-14T10:30:20;18.90;99.90
5960;DHT22;3006;50.956;7.002;2023-05-14T10:32:51;19.00;99.90
5960;DHT22;3006;50.956;7.002;2023-05-14T10:35:50;19.00;99.90
5960;DHT22;3006;50.956;7.002;2023-05-14T10:38:22;19.00;99.90
5960;DHT22;3006;50.956;7.002;2023-05-14T10:41:00;19.10;99.90
5960;DHT22;3006;50.956;7.002;2023-05-14T10:43:34;19.20;99.90
5960;DHT22;3006;50.956;7.002;2023-05-14T10:46:03;19.20;99.90
5960;DHT22;3006;50.956;7.002;2023-05-14T10:48:32;19.20;99.90
5960;DHT22;3006;50.956;7.002;2023-05-14T10:51:01;19.20;99.90
5960;DHT22;3006;50.956;7.002;2023-05-14T10:53:33;19.20;99.90
5960;DHT22;3006;50.956;7.002;2023-05-14T10:56:03;19.20;99.90
5960;DHT22;3006;50.956;7.002;2023-05-14T10:58:35;19.20;99.90
5960;DHT22;3006;50.956;7.002;2023-05-14T11:01:05;19.30;99.90
5960;DHT22;3006;50.956;7.002;2023-05-14T11:03:39;19.40;99.90
5960;DHT22;3006;50.956;7.002;2023-05-14T11:06:10;19.50;99.90
5960;DHT22;3006;50.956;7.002;2023-05-14T11:08:39;19.60;99.90
5960;DHT22;3006;50.956;7.002;2023-05-14T11:11:08;19.50;99.90
5960;DHT22;3006;50.956;7.002;2023-05-14T11:13:38;19.60;99.90
5960;DHT22;3006;50.956;7.002;2023-05-14T11:16:07;19.70;99.90
5960;DHT22;3006;50.956;7.002;2023-05-14T11:18:38;19.80;99.90
5960;DHT22;3006;50.956;7.002;2023-05-14T11:21:07;19.80;99.90
5960;DHT22;3006;50.956;7.002;2023-05-14T11:23:35;19.80;99.90
5960;DHT22;3006;50.956;7.002;2023-05-14T11:26:04;19.80;99.90
5960;DHT22;3006;50.956;7.002;2023-05-14T11:28:32;19.80;99.90
5960;DHT22;3006;50.956;7.002;2023-05-14T11:31:02;19.80;99.90
5960;DHT22;3006;50.956;7.002;2023-05-14T11:33:31;19.80;99.90
5960;DHT22;3006;50.956;7.002;2023-05-14T11:35:59;19.80;99.90
5960;DHT22;3006;50.956;7.002;2023-05-14T11:38:27;19.80;99.90
5960;DHT22;3006;50.956;7.002;2023-05-14T11:40:56;19.80;99.90
5960;DHT22;3006;50.956;7.002;2023-05-14T11:43:25;19.80;98.00
5960;DHT22;3006;50.956;7.002;2023-05-14T11:45:54;19.80;96.60
5960;DHT22;3006;50.956;7.002;2023-05-14T11:48:24;19.80;96.80
5960;DHT22;3006;50.956;7.002;2023-05-14T11:50:52;19.90;97.30
5960;DHT22;3006;50.956;7.002;2023-05-14T11:53:25;20.00;97.90
5960;DHT22;3006;50.956;7.002;2023-05-14T11:55:53;20.00;98.00
5960;DHT22;3006;50.956;7.002;2023-05-14T11:58:24;20.00;98.00
5960;DHT22;3006;50.956;7.002;2023-05-14T12:00:53;20.00;98.20
5960;DHT22;3006;50.956;7.002;2023-05-14T12:03:24;20.00;97.80
5960;DHT22;3006;50.956;7.002;2023-05-14T12:05:58;20.00;97.80
5960;DHT22;3006;50.956;7.002;2023-05-14T12:08:28;20.00;97.90
5960;DHT22;3006;50.956;7.002;2023-05-14T12:10:57;20.00;98.30
5960;DHT22;3006;50.956;7.002;2023-05-14T12:13:26;20.10;97.80
5960;DHT22;3006;50.956;7.002;2023-05-14T12:15:55;20.10;97.80
5960;DHT22;3006;50.956;7.002;2023-05-14T12:18:27;20.20;97.80
5960;DHT22;3006;50.956;7.002;2023-05-14T12:21:01;20.20;97.00
5960;DHT22;3006;50.956;7.002;2023-05-14T12:23:30;20.20;97.20
5960;DHT22;3006;50.956;7.002;2023-05-14T12:26:01;20.30;97.10
5960;DHT22;3006;50.956;7.002;2023-05-14T12:28:32;20.40;96.90
5960;DHT22;3006;50.956;7.002;2023-05-14T12:31:04;20.50;96.80
5960;DHT22;3006;50.956;7.002;2023-05-14T12:33:34;20.60;97.50
5960;DHT22;3006;50.956;7.002;2023-05-14T12:36:02;20.70;99.00
5960;DHT22;3006;50.956;7.002;2023-05-14T12:38:46;20.70;99.30
5960;DHT22;3006;50.956;7.002;2023-05-14T12:41:15;20.80;99.90
5960;DHT22;3006;50.956;7.002;2023-05-14T12:43:43;20.80;97.20
5960;DHT22;3006;50.956;7.002;2023-05-14T12:46:11;20.90;94.60
5960;DHT22;3006;50.956;7.002;2023-05-14T12:48:40;20.90;93.60
5960;DHT22;3006;50.956;7.002;2023-05-14T12:51:08;20.90;92.40
5960;DHT22;3006;50.956;7.002;2023-05-14T12:53:36;20.90;90.20
5960;DHT22;3006;50.956;7.002;2023-05-14T12:56:05;21.00;89.50
5960;DHT22;3006;50.956;7.002;2023-05-14T12:58:33;21.20;86.90
5960;DHT22;3006;50.956;7.002;2023-05-14T13:01:01;21.30;84.10
5960;DHT22;3006;50.956;7.002;2023-05-14T13:03:30;21.40;81.20
5960;DHT22;3006;50.956;7.002;2023-05-14T13:05:59;21.40;78.60
5960;DHT22;3006;50.956;7.002;2023-05-14T13:08:28;21.40;78.20
5960;DHT22;3006;50.956;7.002;2023-05-14T13:10:56;21.60;77.50
5960;DHT22;3006;50.956;7.002;2023-05-14T13:13:24;21.90;75.40
5960;DHT22;3006;50.956;7.002;2023-05-14T13:15:52;22.10;73.80
5960;DHT22;3006;50.956;7.002;2023-05-14T13:18:21;22.30;73.60
5960;DHT22;3006;50.956;7.002;2023-05-14T13:20:49;22.40;72.00
5960;DHT22;3006;50.956;7.002;2023-05-14T13:23:18;22.40;71.50
5960;DHT22;3006;50.956;7.002;2023-05-14T13:25:47;22.30;70.80
5960;DHT22;3006;50.956;7.002;2023-05-14T13:28:15;22.00;71.10
5960;DHT22;3006;50.956;7.002;2023-05-14T13:31:02;21.80;70.60
5960;DHT22;3006;50.956;7.002;2023-05-14T13:33:32;21.60;71.50
5960;DHT22;3006;50.956;7.002;2023-05-14T13:36:00;21.50;70.40
5960;DHT22;3006;50.956;7.002;2023-05-14T13:38:29;21.40;71.10
5960;DHT22;3006;50.956;7.002;2023-05-14T13:40:57;21.40;72.10
5960;DHT22;3006;50.956;7.002;2023-05-14T13:43:29;21.40;73.30
5960;DHT22;3006;50.956;7.002;2023-05-14T13:45:57;21.70;73.20
5960;DHT22;3006;50.956;7.002;2023-05-14T13:48:25;22.10;70.80
5960;DHT22;3006;50.956;7.002;2023-05-14T13:50:54;22.50;68.10
5960;DHT22;3006;50.956;7.002;2023-05-14T13:53:23;22.80;68.30
5960;DHT22;3006;50.956;7.002;2023-05-14T13:55:52;23.00;67.20
5960;DHT22;3006;50.956;7.002;2023-05-14T13:58:22;22.90;67.00
5960;DHT22;3006;50.956;7.002;2023-05-14T14:00:51;22.60;66.90
5960;DHT22;3006;50.956;7.002;2023-05-14T14:03:19;22.50;67.10
5960;DHT22;3006;50.956;7.002;2023-05-14T14:05:48;22.40;67.00
5960;DHT22;3006;50.956;7.002;2023-05-14T14:11:13;22.30;67.00
5960;DHT22;3006;50.956;7.002;2023-05-14T14:13:41;22.30;68.20
5960;DHT22;3006;50.956;7.002;2023-05-14T14:16:12;22.30;68.70
5960;DHT22;3006;50.956;7.002;2023-05-14T14:18:40;22.30;69.00
5960;DHT22;3006;50.956;7.002;2023-05-14T14:21:09;22.30;68.60
5960;DHT22;3006;50.956;7.002;2023-05-14T14:23:37;22.20;69.10
5960;DHT22;3006;50.956;7.002;2023-05-14T14:26:05;22.20;67.80
5960;DHT22;3006;50.956;7.002;2023-05-14T14:28:35;22.40;68.60
5960;DHT22;3006;50.956;7.002;2023-05-14T14:31:03;22.40;68.70
5960;DHT22;3006;50.956;7.002;2023-05-14T14:33:31;22.30;69.40
5960;DHT22;3006;50.956;7.002;2023-05-14T14:35:59;22.20;70.30
5960;DHT22;3006;50.956;7.002;2023-05-14T14:38:27;22.20;70.30
5960;DHT22;3006;50.956;7.002;2023-05-14T14:40:56;22.30;69.20
5960;DHT22;3006;50.956;7.002;2023-05-14T14:43:24;22.60;69.30
5960;DHT22;3006;50.956;7.002;2023-05-14T14:45:53;23.20;69.70
5960;DHT22;3006;50.956;7.002;2023-05-14T14:48:24;23.60;66.60
5960;DHT22;3006;50.956;7.002;2023-05-14T14:50:53;23.90;66.30
5960;DHT22;3006;50.956;7.002;2023-05-14T14:53:21;24.10;65.50
5960;DHT22;3006;50.956;7.002;2023-05-14T14:55:50;24.10;64.60
5960;DHT22;3006;50.956;7.002;2023-05-14T14:58:19;23.90;64.00
5960;DHT22;3006;50.956;7.002;2023-05-14T15:00:48;24.10;64.80
5960;DHT22;3006;50.956;7.002;2023-05-14T15:03:18;24.50;64.40
5960;DHT22;3006;50.956;7.002;2023-05-14T15:05:47;24.50;62.40
5960;DHT22;3006;50.956;7.002;2023-05-14T15:08:15;24.70;62.00
5960;DHT22;3006;50.956;7.002;2023-05-14T15:10:43;24.90;60.60
5960;DHT22;3006;50.956;7.002;2023-05-14T15:13:12;25.10;60.20
5960;DHT22;3006;50.956;7.002;2023-05-14T15:15:40;24.80;61.10
5960;DHT22;3006;50.956;7.002;2023-05-14T15:18:08;24.70;62.10
5960;DHT22;3006;50.956;7.002;2023-05-14T15:20:37;24.30;62.30
5960;DHT22;3006;50.956;7.002;2023-05-14T15:23:05;23.90;63.30
5960;DHT22;3006;50.956;7.002;2023-05-14T15:25:34;23.80;64.40
5960;DHT22;3006;50.956;7.002;2023-05-14T15:28:04;24.00;64.00
5960;DHT22;3006;50.956;7.002;2023-05-14T15:30:33;24.00;63.10
5960;DHT22;3006;50.956;7.002;2023-05-14T15:33:01;23.80;63.80
5960;DHT22;3006;50.956;7.002;2023-05-14T15:35:29;23.50;63.20
5960;DHT22;3006;50.956;7.002;2023-05-14T15:37:58;23.30;64.00
5960;DHT22;3006;50.956;7.002;2023-05-14T15:40:26;23.20;65.00
5960;DHT22;3006;50.956;7.002;2023-05-14T15:42:55;23.00;65.10
5960;DHT22;3006;50.956;7.002;2023-05-14T15:45:23;23.00;65.60
5960;DHT22;3006;50.956;7.002;2023-05-14T15:47:51;23.10;66.40
5960;DHT22;3006;50.956;7.002;2023-05-14T15:50:19;23.10;69.30
5960;DHT22;3006;50.956;7.002;2023-05-14T15:52:48;23.10;71.60
5960;DHT22;3006;50.956;7.002;2023-05-14T15:55:17;23.10;72.00
5960;DHT22;3006;50.956;7.002;2023-05-14T15:57:45;23.00;72.20
5960;DHT22;3006;50.956;7.002;2023-05-14T16:00:14;22.90;72.20
5960;DHT22;3006;50.956;7.002;2023-05-14T16:02:42;22.80;71.40
5960;DHT22;3006;50.956;7.002;2023-05-14T16:05:10;22.60;71.00
5960;DHT22;3006;50.956;7.002;2023-05-14T16:07:38;22.50;72.00
5960;DHT22;3006;50.956;7.002;2023-05-14T16:10:07;22.40;71.10
5960;DHT22;3006;50.956;7.002;2023-05-14T16:12:36;22.30;72.00
5960;DHT22;3006;50.956;7.002;2023-05-14T16:15:06;22.30;71.60
5960;DHT22;3006;50.956;7.002;2023-05-14T16:17:34;22.30;71.60